Main page
METAR-TAF:

METAR-TAF

Airports :

Durham Tees Valley Airport

Durham, England

latitude: 54-31N, longitude: 001-25W, elevation: 37 m

Current weather observation

The report was made 25 minutes ago, at 18:20 UTC
Wind 15 kt from the South
Temperature 11°C
Humidity 76%
Pressure 1015 hPa
Visibility 10 km or more
Few clouds at a height of 3000 ft

METAR: EGNV 141820Z 19015KT 9999 FEW030 11/07 Q1015

Time: 18:45 (18:45 UTC)

Forecast

The report was made 1 hour and 46 minutes ago, at 16:59 UTC
Forecast valid from 14 at 18 UTC to 14 at 22 UTC
Wind 12 kt from the South
Visibility 10 km or more
Scattered clouds at a height of 3000 ft

TAF: EGNV 141659Z 1418/1422 18012KT 9999 SCT030

Weather observations and forecasts of more than 4000 airports (METAR and TAF reports).

The available stations are represented by yellow and red dots on the map.

Hover mouse over dot to see the name of the station.

Then click to see weather observations and forecasts.

To change the map : click on the green buttons with a black cross to zoom in, on the green button with a dash to zoom out, or on the green arrows for adjacent maps.


METAR-TAF: